Time;durP1;ratioP1;P1;durP2;ratioP2;P2;SDS_P1;SDS_P2;PMS_P1;PMS_P2;Temp;Humidity;BMP_temperature;BMP_pressure;BME280_temperature;BME280_humidity;BME280_pressure;Samples;Min_cycle;Max_cycle;Signal;HPM_P1;HPM_P2
2022/09/28 00:00:57;;;;;;;;;;;7.60;99.90;;;;;;5007973;28;20443;-57
2022/09/28 00:03:23;;;;;;;1.70;1.25;;;7.60;99.90;;;;;;5028009;28;19925;-52
2022/09/28 00:05:49;;;;;;;2.13;1.10;;;7.60;99.90;;;;;;5046745;28;20040;-55
2022/09/28 00:08:15;;;;;;;2.03;1.35;;;7.60;99.90;;;;;;5026814;28;20073;-57
2022/09/28 00:10:42;;;;;;;4.22;1.65;;;7.50;99.90;;;;;;5027255;28;20057;-58
2022/09/28 00:13:08;;;;;;;3.35;1.70;;;7.50;99.90;;;;;;5025827;28;20102;-50
2022/09/28 00:15:34;;;;;;;2.75;1.77;;;7.40;99.90;;;;;;5027257;28;20038;-50
2022/09/28 00:18:00;;;;;;;2.22;1.38;;;7.50;99.90;;;;;;5046179;28;20059;-63
2022/09/28 00:20:26;;;;;;;5.25;2.00;;;7.40;99.90;;;;;;4976284;28;20046;-53
2022/09/28 00:22:52;;;;;;;4.35;1.73;;;7.30;99.90;;;;;;5023597;28;20058;-54
2022/09/28 00:25:20;;;;;;;2.58;1.80;;;7.40;99.90;;;;;;5029966;28;20049;-54
2022/09/28 00:27:50;;;;;;;3.08;1.92;;;7.30;99.90;;;;;;5013135;28;20041;-52
2022/09/28 00:30:16;;;;;;;5.78;1.95;;;7.30;99.90;;;;;;5015778;28;20053;-61
2022/09/28 00:32:41;;;;;;;5.60;1.92;;;7.20;99.90;;;;;;5009355;28;20389;-57
2022/09/28 00:35:08;;;;;;;6.53;2.47;;;7.20;99.90;;;;;;5037475;28;20041;-60
2022/09/28 00:37:34;;;;;;;2.85;2.20;;;7.20;99.90;;;;;;5030022;28;20419;-55
2022/09/28 00:40:00;;;;;;;3.10;2.15;;;7.20;99.90;;;;;;5010811;28;20092;-57
2022/09/28 00:42:28;;;;;;;4.75;2.35;;;7.20;99.90;;;;;;5028008;28;20100;-54
2022/09/28 00:44:55;;;;;;;7.13;1.88;;;7.10;99.90;;;;;;5008179;28;20385;-55
2022/09/28 00:47:43;;;;;;;2.28;1.88;;;7.10;99.90;;;;;;5009538;28;20037;-51
2022/09/28 00:50:28;;;;;;;6.00;2.33;;;7.00;99.90;;;;;;5046913;28;20835;-54
2022/09/28 00:53:05;;;;;;;2.75;2.30;;;7.00;99.90;;;;;;5042946;28;20102;-60
2022/09/28 00:55:44;;;;;;;5.28;2.17;;;6.90;99.90;;;;;;5009778;28;20171;-60
2022/09/28 00:58:14;;;;;;;7.40;2.70;;;6.90;99.90;;;;;;5030500;28;20041;-52
2022/09/28 01:00:40;;;;;;;2.88;2.35;;;6.90;99.90;;;;;;5046402;28;20707;-53
2022/09/28 01:03:07;;;;;;;4.60;2.47;;;6.90;99.90;;;;;;5017520;28;20510;-58
2022/09/28 01:05:34;;;;;;;2.85;2.45;;;6.90;99.90;;;;;;5046041;28;20049;-56
2022/09/28 01:08:02;;;;;;;2.50;2.30;;;6.90;99.90;;;;;;5051250;28;20330;-54
2022/09/28 01:10:30;;;;;;;5.63;2.70;;;6.90;99.90;;;;;;5050775;28;20080;-49
2022/09/28 01:12:57;;;;;;;2.75;2.15;;;6.80;99.90;;;;;;5033336;28;20045;-62
2022/09/28 01:15:26;;;;;;;7.53;2.28;;;6.80;99.90;;;;;;5048638;28;20499;-47
2022/09/28 01:18:21;;;;;;;1.85;1.70;;;6.70;99.90;;;;;;5029147;28;20053;-66
2022/09/28 01:20:47;;;;;;;6.53;2.20;;;6.70;99.90;;;;;;5029962;28;20061;-55
2022/09/28 01:23:52;;;;;;;1.95;1.85;;;6.70;99.90;;;;;;5029550;28;20061;-49
2022/09/28 01:26:43;;;;;;;3.58;2.50;;;6.70;99.90;;;;;;4998094;28;20038;-48
2022/09/28 01:29:44;;;;;;;6.38;2.67;;;6.60;99.90;;;;;;5031114;28;20100;-49
2022/09/28 01:32:23;;;;;;;6.45;2.58;;;6.60;99.90;;;;;;5023624;28;20060;-49
2022/09/28 01:35:24;;;;;;;4.18;2.78;;;6.50;99.90;;;;;;4984599;28;20135;-50
2022/09/28 01:38:05;;;;;;;4.97;3.22;;;6.50;99.90;;;;;;5004430;28;20063;-55
2022/09/28 01:40:31;;;;;;;;;;;6.60;99.90;;;;;;5029057;28;20476;-55
2022/09/28 01:43:11;;;;;;;4.00;2.40;;;6.60;99.90;;;;;;5030594;28;19928;-53
2022/09/28 01:45:47;;;;;;;4.25;2.80;;;6.60;99.90;;;;;;5028734;28;20071;-54
2022/09/28 01:48:32;;;;;;;4.18;2.22;;;6.50;99.90;;;;;;5012255;28;20045;-49
2022/09/28 01:51:02;;;;;;;5.70;3.00;;;6.50;99.90;;;;;;5030390;28;20049;-49
2022/09/28 01:53:31;;;;;;;3.53;3.22;;;6.50;99.90;;;;;;5029590;28;20079;-65
2022/09/28 01:56:04;;;;;;;6.13;3.78;;;6.50;99.90;;;;;;5030668;28;20081;-53
2022/09/28 01:58:34;;;;;;;5.70;3.13;;;6.50;99.90;;;;;;5029297;28;20048;-54
2022/09/28 02:01:04;;;;;;;;;;;6.50;99.90;;;;;;5028865;28;20116;-49
2022/09/28 02:03:47;;;;;;;2.83;2.63;;;6.50;99.90;;;;;;5012665;28;19921;-56
2022/09/28 02:06:37;;;;;;;5.68;2.90;;;6.40;99.90;;;;;;5029400;28;20041;-52
2022/09/28 02:09:10;;;;;;;4.32;2.72;;;6.40;99.90;;;;;;5016143;28;20534;-50
2022/09/28 02:11:40;;;;;;;4.82;3.25;;;6.40;99.90;;;;;;5029665;28;20049;-54
2022/09/28 02:14:09;;;;;;;5.13;3.58;;;6.40;99.90;;;;;;5029150;28;20037;-47
2022/09/28 02:16:39;;;;;;;3.80;3.47;;;6.50;99.90;;;;;;5031576;28;20067;-47
2022/09/28 02:19:11;;;;;;;5.65;3.47;;;6.50;99.90;;;;;;5027708;28;20558;-50
2022/09/28 02:21:59;;;;;;;6.82;3.47;;;6.50;99.90;;;;;;5032676;28;20460;-47
2022/09/28 02:25:02;;;;;;;4.80;3.33;;;6.60;99.90;;;;;;4992911;28;20561;-55
2022/09/28 02:27:37;;;;;;;4.97;3.55;;;6.60;99.90;;;;;;5005991;28;20056;-58
2022/09/28 02:30:05;;;;;;;5.55;3.30;;;6.60;99.90;;;;;;5022616;28;20041;-56
2022/09/28 02:32:38;;;;;;;9.27;3.70;;;6.60;99.90;;;;;;5034165;28;20100;-58
2022/09/28 02:35:07;;;;;;;5.05;3.58;;;6.60;99.90;;;;;;5018255;28;20511;-55
2022/09/28 02:37:33;;;;;;;3.88;3.45;;;6.70;99.90;;;;;;5031345;28;20041;-50
2022/09/28 02:40:00;;;;;;;4.00;3.60;;;6.70;99.90;;;;;;5017692;28;20056;-54
2022/09/28 02:42:33;;;;;;;4.20;3.78;;;6.70;99.90;;;;;;5049671;28;20483;-52
2022/09/28 02:45:21;;;;;;;5.82;3.85;;;6.70;99.90;;;;;;5048384;28;20486;-56
2022/09/28 02:48:20;;;;;;;5.93;3.63;;;6.70;99.90;;;;;;5050182;28;20045;-50
2022/09/28 02:50:56;;;;;;;6.25;3.03;;;6.70;99.90;;;;;;5021530;28;20139;-50
2022/09/28 02:54:05;;;;;;;4.82;2.90;;;6.70;99.90;;;;;;5014480;28;20033;-51
2022/09/28 02:56:47;;;;;;;3.60;2.92;;;6.60;99.90;;;;;;5017904;28;20137;-53
2022/09/28 02:59:21;;;;;;;10.32;3.08;;;6.60;99.90;;;;;;5027501;28;20052;-55
2022/09/28 03:02:17;;;;;;;5.45;3.47;;;6.50;99.90;;;;;;5036394;28;20092;-54
2022/09/28 03:05:00;;;;;;;6.57;3.13;;;6.50;99.90;;;;;;5024220;28;20427;-55
2022/09/28 03:07:39;;;;;;;3.78;3.35;;;6.50;99.90;;;;;;5029909;28;20049;-51
2022/09/28 03:10:10;;;;;;;22.92;3.00;;;6.60;99.90;;;;;;5042310;28;20041;-59
2022/09/28 03:12:37;;;;;;;76.60;3.25;;;6.60;99.90;;;;;;5028958;28;20514;-48
2022/09/28 03:15:28;;;;;;;70.25;3.20;;;6.50;99.90;;;;;;5047795;28;20037;-65
2022/09/28 03:17:55;;;;;;;33.47;2.50;;;6.50;99.90;;;;;;5038824;28;20060;-52
2022/09/28 03:20:20;;;;;;;67.35;2.70;;;6.50;99.90;;;;;;5024155;28;20057;-61
2022/09/28 03:22:46;;;;;;;76.65;2.80;;;6.50;99.90;;;;;;5027282;28;20033;-54
2022/09/28 03:25:14;;;;;;;36.85;2.17;;;6.50;99.90;;;;;;5045987;28;20381;-54
2022/09/28 03:27:40;;;;;;;62.00;2.83;;;6.50;99.90;;;;;;5047145;28;20045;-56
2022/09/28 03:30:06;;;;;;;75.57;2.72;;;6.50;99.90;;;;;;5042147;28;20507;-59
2022/09/28 03:32:32;;;;;;;76.72;2.75;;;6.50;99.90;;;;;;5027663;28;20049;-55
2022/09/28 03:34:58;;;;;;;37.05;2.40;;;6.40;99.90;;;;;;5041901;28;20029;-59
2022/09/28 03:37:24;;;;;;;30.92;2.20;;;6.40;99.90;;;;;;5021134;28;20048;-54
2022/09/28 03:39:50;;;;;;;25.60;1.80;;;6.40;99.90;;;;;;5027207;28;20052;-59
2022/09/28 03:42:16;;;;;;;45.65;2.55;;;6.40;99.90;;;;;;5018646;28;20041;-51
2022/09/28 03:44:41;;;;;;;23.98;2.00;;;6.30;99.90;;;;;;5029411;28;20037;-58
2022/09/28 03:47:08;;;;;;;28.92;2.10;;;6.30;99.90;;;;;;5008983;28;20081;-51
2022/09/28 03:49:34;;;;;;;17.70;2.03;;;6.20;99.90;;;;;;5017940;28;20033;-56
2022/09/28 03:52:00;;;;;;;2.00;1.90;;;6.20;99.90;;;;;;5029107;28;20049;-62
2022/09/28 03:54:26;;;;;;;2.78;2.38;;;6.20;99.90;;;;;;4999238;28;20049;-55
2022/09/28 03:56:52;;;;;;;2.63;2.42;;;6.20;99.90;;;;;;5045090;28;20049;-59
2022/09/28 03:59:18;;;;;;;4.95;3.03;;;6.30;99.90;;;;;;5045244;28;20033;-51
2022/09/28 04:01:44;;;;;;;3.60;2.70;;;6.30;99.90;;;;;;5023250;28;20064;-61
2022/09/28 04:04:13;;;;;;;5.82;2.85;;;6.30;99.90;;;;;;5020944;28;20550;-53
2022/09/28 04:06:39;;;;;;;5.32;3.10;;;6.30;99.90;;;;;;5035390;28;20044;-53
2022/09/28 04:09:05;;;;;;;21.67;3.63;;;6.40;99.90;;;;;;5047094;28;20037;-58
2022/09/28 04:11:30;;;;;;;47.40;4.20;;;6.30;99.90;;;;;;5010981;28;20506;-58
2022/09/28 04:13:56;;;;;;;23.92;4.20;;;6.30;99.90;;;;;;5046812;28;20128;-64
2022/09/28 04:16:23;;;;;;;96.72;5.60;;;6.40;99.90;;;;;;5045205;28;20103;-48
2022/09/28 04:18:50;;;;;;;143.75;6.47;;;6.40;99.90;;;;;;5046935;28;20045;-53
2022/09/28 04:21:18;;;;;;;121.82;5.45;;;6.40;99.90;;;;;;5027286;28;20139;-50
2022/09/28 04:23:44;;;;;;;51.30;3.95;;;6.50;99.90;;;;;;5046494;28;20434;-54
2022/09/28 04:26:22;;;;;;;85.65;4.60;;;6.50;99.90;;;;;;5023285;28;20042;-57
2022/09/28 04:31:41;;;;;;;60.25;4.03;;;6.60;99.90;;;;;;5027911;28;20046;-58
2022/09/28 04:34:08;;;;;;;75.55;4.10;;;6.60;99.90;;;;;;5037695;28;20120;-50
2022/09/28 04:36:33;;;;;;;48.38;3.35;;;6.60;99.90;;;;;;5045802;28;20037;-58
2022/09/28 04:38:59;;;;;;;59.45;4.05;;;6.60;99.90;;;;;;5011908;28;20044;-50
2022/09/28 04:41:25;;;;;;;52.50;3.30;;;6.60;99.90;;;;;;5045676;28;20103;-54
2022/09/28 04:43:51;;;;;;;47.67;2.63;;;6.50;99.90;;;;;;5041149;28;20037;-53
2022/09/28 04:46:18;;;;;;;48.90;2.70;;;6.50;99.90;;;;;;5045131;28;20411;-61
2022/09/28 04:48:44;;;;;;;37.30;2.35;;;6.40;99.90;;;;;;5028939;28;20044;-52
2022/09/28 04:51:09;;;;;;;5.80;1.98;;;6.40;99.90;;;;;;5045470;28;20041;-63
2022/09/28 04:53:35;;;;;;;18.65;1.98;;;6.30;99.90;;;;;;5041620;28;20037;-62
2022/09/28 04:56:02;;;;;;;17.95;2.00;;;6.30;99.90;;;;;;5036434;28;20040;-50
2022/09/28 04:58:29;;;;;;;8.65;1.95;;;6.30;99.90;;;;;;5045648;28;20053;-52
2022/09/28 05:01:01;;;;;;;34.17;2.47;;;6.30;99.90;;;;;;5027603;28;20375;-52
2022/09/28 05:03:27;;;;;;;37.40;2.10;;;6.20;99.90;;;;;;5022879;28;20052;-53
2022/09/28 05:05:53;;;;;;;46.45;2.13;;;6.20;99.90;;;;;;5037333;28;20407;-54
2022/09/28 05:08:19;;;;;;;53.78;2.20;;;6.20;99.90;;;;;;5015950;28;20102;-65
2022/09/28 05:10:45;;;;;;;55.42;2.38;;;6.20;99.90;;;;;;5017131;28;20053;-60
2022/09/28 05:13:12;;;;;;;40.17;2.15;;;6.10;99.90;;;;;;5022480;28;20041;-50
2022/09/28 05:15:40;;;;;;;76.40;2.45;;;6.10;99.90;;;;;;5041777;28;20116;-51
2022/09/28 05:18:07;;;;;;;57.05;2.20;;;6.00;99.90;;;;;;5007392;28;20053;-51
2022/09/28 05:20:38;;;;;;;13.73;1.90;;;6.00;99.90;;;;;;4974114;28;20049;-55
2022/09/28 05:23:04;;;;;;;65.63;2.40;;;6.00;99.90;;;;;;5008369;28;20053;-56
2022/09/28 05:25:29;;;;;;;84.18;3.10;;;6.00;99.90;;;;;;5024727;28;20072;-51
2022/09/28 05:27:56;;;;;;;38.97;2.35;;;6.00;99.90;;;;;;5008711;28;20045;-60
2022/09/28 05:30:22;;;;;;;45.75;2.65;;;5.90;99.90;;;;;;4990914;28;20049;-52
2022/09/28 05:32:49;;;;;;;38.78;2.28;;;5.90;99.90;;;;;;5008145;28;20517;-62
2022/09/28 05:35:16;;;;;;;55.05;2.40;;;5.90;99.90;;;;;;5007970;28;20496;-53
2022/09/28 05:37:42;;;;;;;39.80;2.22;;;5.90;99.90;;;;;;4990553;28;20048;-57
2022/09/28 05:40:08;;;;;;;64.90;2.40;;;5.90;99.90;;;;;;5008584;28;20065;-61
2022/09/28 05:42:34;;;;;;;15.52;1.77;;;5.80;99.90;;;;;;5006324;28;20334;-52
2022/09/28 05:45:00;;;;;;;34.17;1.83;;;5.80;99.90;;;;;;4991635;28;20050;-66
2022/09/28 05:47:27;;;;;;;15.32;1.70;;;5.80;99.90;;;;;;5007837;28;20095;-58
2022/09/28 05:49:52;;;;;;;39.60;3.10;;;5.70;99.90;;;;;;5029845;28;20515;-56
2022/09/28 05:52:19;;;;;;;41.63;2.05;;;5.70;99.90;;;;;;5028565;28;20053;-55
2022/09/28 05:54:47;;;;;;;47.67;2.20;;;5.70;99.90;;;;;;5028327;28;20046;-51
2022/09/28 05:57:13;;;;;;;63.45;2.03;;;5.60;99.90;;;;;;4995824;28;20063;-51
2022/09/28 05:59:39;;;;;;;73.03;2.92;;;5.60;99.90;;;;;;5028231;28;20491;-58
2022/09/28 06:02:06;;;;;;;157.98;4.07;;;5.60;99.90;;;;;;5028640;28;20049;-61
2022/09/28 06:04:32;;;;;;;54.97;2.65;;;5.60;99.90;;;;;;5027038;28;20376;-59
2022/09/28 06:06:58;;;;;;;67.10;2.55;;;5.60;99.90;;;;;;5011176;28;20072;-56
2022/09/28 06:09:24;;;;;;;38.72;2.00;;;5.60;99.90;;;;;;5009813;28;20547;-61
2022/09/28 06:11:52;;;;;;;27.45;1.90;;;5.60;99.90;;;;;;4985982;28;20053;-61
2022/09/28 06:14:17;;;;;;;95.38;3.38;;;5.60;99.90;;;;;;5028867;28;20458;-47
2022/09/28 06:16:44;;;;;;;53.60;2.20;;;5.60;99.90;;;;;;5024391;28;20057;-53
2022/09/28 06:19:10;;;;;;;69.57;2.70;;;5.60;99.90;;;;;;4987416;28;20054;-49
2022/09/28 06:21:37;;;;;;;103.70;3.25;;;5.60;99.90;;;;;;5007498;28;20340;-58
2022/09/28 06:24:03;;;;;;;74.68;2.83;;;5.60;99.90;;;;;;4991288;28;20117;-49
2022/09/28 06:26:29;;;;;;;63.65;2.30;;;5.60;99.90;;;;;;4979558;28;20046;-53
2022/09/28 06:28:55;;;;;;;139.98;3.85;;;5.60;99.90;;;;;;4971477;28;20046;-55
2022/09/28 06:31:25;;;;;;;136.82;3.30;;;5.60;99.90;;;;;;4973573;28;20056;-47
2022/09/28 06:33:51;;;;;;;91.78;2.55;;;5.60;99.90;;;;;;5008511;28;20042;-60
2022/09/28 06:36:18;;;;;;;24.40;1.38;;;5.50;99.90;;;;;;5008602;28;20058;-52
2022/09/28 06:38:44;;;;;;;71.88;2.00;;;5.60;99.90;;;;;;4978299;28;21091;-62
2022/09/28 06:41:10;;;;;;;38.28;1.65;;;5.60;99.90;;;;;;4989113;28;20050;-56
2022/09/28 06:43:39;;;;;;;74.78;2.33;;;5.60;99.90;;;;;;4989914;28;20052;-57
2022/09/28 06:46:07;;;;;;;71.53;2.67;;;5.60;99.90;;;;;;4991246;28;20125;-57
2022/09/28 06:48:32;;;;;;;52.80;2.28;;;5.60;99.90;;;;;;4973695;28;20068;-52
2022/09/28 06:51:00;;;;;;;91.20;2.85;;;5.60;99.90;;;;;;5008580;28;20034;-59
2022/09/28 06:53:27;;;;;;;94.45;3.00;;;5.60;99.90;;;;;;5007279;28;20045;-49
2022/09/28 06:55:54;;;;;;;36.75;1.90;;;5.50;99.90;;;;;;4990072;28;20042;-52
2022/09/28 06:58:22;;;;;;;50.30;2.45;;;5.60;99.90;;;;;;4990980;28;20049;-58
2022/09/28 07:00:50;;;;;;;39.60;2.03;;;5.50;99.90;;;;;;4989214;28;20817;-52
2022/09/28 07:03:21;;;;;;;54.60;2.47;;;5.50;99.90;;;;;;4989097;28;20050;-60
2022/09/28 07:05:52;;;;;;;64.65;2.50;;;5.50;99.90;;;;;;4987864;28;20063;-56
2022/09/28 07:08:23;;;;;;;68.53;2.50;;;5.50;99.90;;;;;;4990401;28;20046;-59
2022/09/28 07:10:55;;;;;;;87.57;2.95;;;5.50;99.90;;;;;;4990217;28;20124;-56
2022/09/28 07:13:25;;;;;;;51.50;2.67;;;5.50;99.90;;;;;;4974225;28;20461;-53
2022/09/28 07:15:55;;;;;;;;;;;5.60;99.90;;;;;;4978435;28;20105;-50
2022/09/28 07:18:22;;;;;;;53.70;2.75;;;5.70;99.90;;;;;;5008976;28;19925;-60
2022/09/28 07:20:48;;;;;;;109.18;3.72;;;5.70;99.90;;;;;;5015254;28;20554;-55
2022/09/28 07:23:14;;;;;;;55.55;2.67;;;5.70;99.90;;;;;;5007093;28;20053;-49
2022/09/28 07:25:44;;;;;;;39.42;2.30;;;5.80;99.90;;;;;;5036422;28;20470;-52
2022/09/28 07:28:10;;;;;;;62.97;3.13;;;5.80;99.90;;;;;;5031513;28;20104;-57
2022/09/28 07:30:36;;;;;;;66.78;2.53;;;5.80;99.90;;;;;;5029655;28;20096;-59
2022/09/28 07:33:05;;;;;;;44.72;2.22;;;5.80;99.90;;;;;;5026222;28;20033;-58
2022/09/28 07:35:33;;;;;;;71.57;2.55;;;5.80;99.90;;;;;;5041941;28;20520;-61
2022/09/28 07:38:06;;;;;;;66.45;2.88;;;5.80;99.90;;;;;;5046535;28;20037;-51
2022/09/28 07:43:19;;;;;;;56.88;2.50;;;6.00;99.90;;;;;;5008475;28;20041;-51
2022/09/28 07:45:48;;;;;;;93.82;3.50;;;6.10;99.90;;;;;;5025227;28;20053;-56
2022/09/28 07:48:15;;;;;;;28.38;2.38;;;6.20;99.90;;;;;;5029560;28;20444;-53
2022/09/28 07:50:52;;;;;;;46.58;2.50;;;6.30;99.90;;;;;;5010325;28;20049;-48
2022/09/28 07:53:23;;;;;;;74.38;3.40;;;6.40;99.90;;;;;;5021212;28;20045;-54
2022/09/28 07:56:04;;;;;;;59.22;2.80;;;6.50;99.90;;;;;;5015348;28;20250;-59
2022/09/28 07:58:31;;;;;;;90.57;3.28;;;6.60;99.90;;;;;;5007428;28;20045;-60
2022/09/28 08:01:01;;;;;;;62.35;2.75;;;6.70;99.90;;;;;;5042356;28;20047;-53
2022/09/28 08:03:27;;;;;;;130.48;3.92;;;6.80;99.90;;;;;;5025439;28;20073;-52
2022/09/28 08:06:01;;;;;;;125.95;4.13;;;6.90;99.90;;;;;;5019079;28;20393;-53
2022/09/28 08:08:28;;;;;;;58.25;2.95;;;6.90;99.90;;;;;;5029166;28;20511;-63
2022/09/28 08:10:55;;;;;;;95.72;3.63;;;7.00;99.90;;;;;;5011632;28;20044;-50
2022/09/28 08:13:29;;;;;;;133.38;4.47;;;7.10;99.90;;;;;;4982028;28;20049;-58
2022/09/28 08:16:00;;;;;;;118.53;4.28;;;7.20;99.90;;;;;;5021245;28;20049;-56
2022/09/28 08:18:25;;;;;;;89.97;3.42;;;7.30;99.90;;;;;;5005177;28;20184;-53
2022/09/28 08:23:37;;;;;;;76.60;3.72;;;7.50;99.90;;;;;;5009074;28;20056;-54
2022/09/28 08:26:03;;;;;;;166.30;4.90;;;7.60;99.90;;;;;;5022423;28;20053;-56
2022/09/28 08:28:29;;;;;;;193.20;5.80;;;7.70;99.90;;;;;;5004196;28;20041;-47
2022/09/28 08:30:58;;;;;;;173.60;5.38;;;7.80;99.90;;;;;;4997353;28;20060;-61
2022/09/28 08:33:24;;;;;;;120.63;3.97;;;7.90;99.90;;;;;;5006005;28;20042;-56
2022/09/28 08:35:58;;;;;;;195.23;7.45;;;8.00;99.90;;;;;;5004784;28;20323;-56
2022/09/28 08:38:26;;;;;;;35.03;2.90;;;8.10;99.90;;;;;;5021023;28;20050;-61
2022/09/28 08:41:34;;;;;;;71.97;3.45;;;8.10;99.90;;;;;;5022656;28;20546;-57
2022/09/28 08:44:24;;;;;;;56.17;3.17;;;8.20;99.90;;;;;;5013274;28;20060;-52
2022/09/28 08:46:55;;;;;;;119.85;4.90;;;8.20;99.90;;;;;;5004161;28;20064;-55
2022/09/28 08:49:31;;;;;;;157.50;7.00;;;8.30;99.90;;;;;;5022565;28;20496;-51
2022/09/28 08:52:17;;;;;;;47.47;3.22;;;8.30;99.90;;;;;;5003863;28;20400;-49
2022/09/28 08:55:05;;;;;;;3.88;2.95;;;8.40;99.90;;;;;;4998734;28;20344;-56
2022/09/28 08:57:53;;;;;;;109.53;4.63;;;8.60;99.90;;;;;;4994537;28;20049;-52
2022/09/28 09:00:22;;;;;;;8.95;3.30;;;8.80;99.90;;;;;;5004303;28;20408;-58
2022/09/28 09:02:48;;;;;;;21.88;3.40;;;9.00;99.90;;;;;;5005435;28;20049;-56
2022/09/28 09:05:20;;;;;;;52.17;3.75;;;9.20;99.90;;;;;;5004926;28;20065;-55
2022/09/28 09:08:00;;;;;;;11.23;3.38;;;9.40;99.90;;;;;;4988970;28;20529;-52
2022/09/28 09:10:52;;;;;;;8.82;3.60;;;9.50;99.90;;;;;;5021792;28;20099;-51
2022/09/28 09:13:23;;;;;;;3.55;3.35;;;9.60;99.90;;;;;;4997737;28;20053;-51
2022/09/28 09:16:14;;;;;;;32.75;3.97;;;9.70;99.90;;;;;;5035040;28;20038;-49
2022/09/28 09:18:39;;;;;;;14.75;3.38;;;9.60;99.90;;;;;;5013606;28;20590;-51
2022/09/28 09:21:32;;;;;;;4.00;3.67;;;9.70;99.90;;;;;;5005843;28;20127;-53
2022/09/28 09:24:20;;;;;;;8.45;3.50;;;9.80;99.90;;;;;;5009991;28;20052;-55
2022/09/28 09:26:53;;;;;;;5.60;2.92;;;9.90;99.90;;;;;;5020167;28;20053;-54
2022/09/28 09:29:40;;;;;;;4.57;2.97;;;9.90;99.90;;;;;;5029191;28;20041;-54
2022/09/28 09:32:27;;;;;;;3.97;3.40;;;10.00;99.90;;;;;;5027491;28;20037;-62
2022/09/28 09:34:56;;;;;;;3.22;2.92;;;10.10;99.90;;;;;;5009784;28;20447;-54
2022/09/28 09:37:44;;;;;;;4.05;2.65;;;10.20;99.90;;;;;;5028063;28;20099;-48
2022/09/28 09:40:41;;;;;;;4.13;3.35;;;10.20;99.90;;;;;;5009550;28;20046;-56
2022/09/28 09:43:25;;;;;;;4.03;3.67;;;10.30;99.90;;;;;;4986661;28;20038;-65
2022/09/28 09:46:20;;;;;;;3.92;3.63;;;10.40;99.90;;;;;;5008546;28;20057;-48
2022/09/28 09:49:05;;;;;;;3.55;3.25;;;10.40;99.90;;;;;;4996353;28;20045;-56
2022/09/28 09:52:02;;;;;;;2.80;2.70;;;10.40;99.90;;;;;;5027145;28;20048;-59
2022/09/28 09:54:49;;;;;;;2.67;2.58;;;10.40;99.90;;;;;;4961249;28;20232;-52
2022/09/28 09:57:38;;;;;;;2.80;2.60;;;10.70;99.90;;;;;;5010667;28;20103;-58
2022/09/28 10:00:11;;;;;;;2.83;2.63;;;10.80;99.90;;;;;;4984363;28;20204;-61
2022/09/28 10:02:38;;;;;;;2.90;2.72;;;10.80;99.90;;;;;;5026659;28;20033;-53
2022/09/28 10:05:04;;;;;;;3.25;3.05;;;10.90;99.90;;;;;;5009000;28;20057;-54
2022/09/28 10:07:46;;;;;;;5.78;2.85;;;10.90;99.90;;;;;;5009780;28;20091;-49
2022/09/28 10:10:23;;;;;;;3.22;2.60;;;10.80;99.90;;;;;;5024010;28;20077;-62
2022/09/28 10:12:52;;;;;;;3.33;2.50;;;10.90;99.90;;;;;;5026193;28;20176;-60
2022/09/28 10:15:29;;;;;;;4.35;2.95;;;11.10;99.90;;;;;;5025622;28;20073;-61
2022/09/28 10:18:01;;;;;;;2.72;2.53;;;11.20;99.90;;;;;;5009663;28;20526;-57
2022/09/28 10:20:31;;;;;;;2.70;2.50;;;11.30;99.90;;;;;;5027150;28;20239;-53
2022/09/28 10:23:00;;;;;;;2.95;2.70;;;11.40;99.90;;;;;;5008367;28;20060;-55
2022/09/28 10:25:28;;;;;;;3.47;3.25;;;11.50;99.90;;;;;;5011012;28;20088;-55
2022/09/28 10:27:56;;;;;;;3.72;2.85;;;11.70;99.90;;;;;;5004284;28;20080;-55
2022/09/28 10:30:24;;;;;;;3.08;2.55;;;11.80;99.90;;;;;;5026867;28;20092;-49
2022/09/28 10:32:57;;;;;;;2.10;2.00;;;11.80;99.90;;;;;;5024266;28;20038;-55
2022/09/28 10:35:26;;;;;;;4.28;2.35;;;11.90;99.90;;;;;;5009245;28;20369;-59
2022/09/28 10:38:04;;;;;;;2.30;2.20;;;12.00;99.90;;;;;;4982384;28;20052;-65
2022/09/28 10:40:47;;;;;;;2.65;2.10;;;12.00;99.90;;;;;;5008068;28;20068;-66
2022/09/28 10:43:27;;;;;;;2.20;2.10;;;12.10;99.90;;;;;;5008082;28;20411;-59
2022/09/28 10:46:12;;;;;;;3.43;2.40;;;12.30;99.90;;;;;;5005869;28;20543;-60
2022/09/28 10:48:58;;;;;;;2.80;2.33;;;12.30;99.90;;;;;;5017718;28;20095;-63
2022/09/28 10:51:50;;;;;;;3.95;2.38;;;12.50;99.90;;;;;;5027007;28;20068;-58
2022/09/28 10:54:24;;;;;;;3.70;2.20;;;12.60;99.90;;;;;;5016656;28;20112;-58
2022/09/28 10:56:52;;;;;;;3.20;2.20;;;12.70;99.90;;;;;;5005276;28;20065;-51
2022/09/28 10:59:37;;;;;;;2.67;2.47;;;12.80;99.90;;;;;;5002606;28;20083;-54
2022/09/28 11:02:19;;;;;;;2.30;2.10;;;12.90;99.90;;;;;;4997717;28;20448;-51
2022/09/28 11:04:52;;;;;;;2.15;1.98;;;12.70;99.90;;;;;;5017423;28;20104;-50
2022/09/28 11:07:27;;;;;;;1.88;1.77;;;12.70;99.90;;;;;;5020400;28;20139;-56
2022/09/28 11:09:54;;;;;;;2.58;2.30;;;12.60;99.90;;;;;;5019748;28;20487;-65
2022/09/28 11:12:23;;;;;;;2.63;2.42;;;12.70;99.90;;;;;;4993130;28;20134;-52
2022/09/28 11:14:59;;;;;;;2.67;2.47;;;12.60;99.90;;;;;;5028057;28;20638;-54
2022/09/28 11:17:31;;;;;;;2.40;2.17;;;12.50;99.90;;;;;;5009716;28;20419;-57
2022/09/28 11:20:00;;;;;;;2.53;2.28;;;12.60;99.90;;;;;;5014027;28;20046;-55
2022/09/28 11:22:32;;;;;;;2.20;2.10;;;12.70;99.90;;;;;;5022739;28;20049;-53
2022/09/28 11:25:30;;;;;;;2.38;2.17;;;12.80;99.90;;;;;;5003216;28;20111;-49
2022/09/28 11:28:00;;;;;;;3.17;2.15;;;12.90;99.90;;;;;;4957944;28;20119;-58
2022/09/28 11:30:52;;;;;;;2.95;2.40;;;12.80;99.90;;;;;;5025528;28;20405;-56
2022/09/28 11:33:21;;;;;;;3.63;2.25;;;12.90;99.90;;;;;;5002289;28;20408;-55
2022/09/28 11:36:05;;;;;;;3.45;2.17;;;13.00;99.90;;;;;;4992787;28;20412;-49
2022/09/28 11:38:46;;;;;;;3.00;2.13;;;13.00;99.90;;;;;;5017533;28;20046;-52
2022/09/28 11:41:30;;;;;;;2.38;1.75;;;13.10;99.90;;;;;;4997004;28;20080;-49
2022/09/28 11:44:40;;;;;;;2.90;2.00;;;13.20;99.90;;;;;;5001883;28;20111;-61
2022/09/28 11:47:05;;;;;;;;;;;13.30;99.90;;;;;;5000941;28;20064;-49
2022/09/28 11:49:44;;;;;;;2.35;1.35;;;13.30;99.90;;;;;;5015622;28;19925;-59
2022/09/28 11:52:35;;;;;;;3.72;1.60;;;13.30;99.90;;;;;;5013916;28;20051;-54
2022/09/28 11:55:40;;;;;;;1.67;1.17;;;13.40;99.90;;;;;;4997205;28;20061;-61
2022/09/28 11:58:16;;;;;;;1.83;1.42;;;13.50;99.90;;;;;;5023661;28;20045;-59
2022/09/28 12:01:02;;;;;;;2.20;1.45;;;13.50;99.90;;;;;;4983241;28;20059;-61
2022/09/28 12:03:45;;;;;;;1.85;0.90;;;13.60;99.90;;;;;;5004058;28;20072;-60
2022/09/28 12:06:16;;;;;;;1.13;1.10;;;13.70;99.90;;;;;;4991856;28;20626;-66
2022/09/28 12:08:50;;;;;;;0.75;0.75;;;13.70;99.90;;;;;;5003275;28;20455;-53
2022/09/28 12:11:35;;;;;;;0.90;0.90;;;13.70;99.90;;;;;;5021752;28;20064;-61
2022/09/28 12:14:03;;;;;;;1.50;0.85;;;13.80;99.90;;;;;;5004222;28;20052;-66
2022/09/28 12:16:43;;;;;;;4.22;1.10;;;13.90;99.90;;;;;;5021929;28;20060;-62
2022/09/28 12:19:21;;;;;;;;;;;14.00;99.90;;;;;;5024001;28;20045;-53
2022/09/28 12:21:54;;;;;;;0.63;0.63;;;14.10;99.90;;;;;;5022732;28;19929;-57
2022/09/28 12:24:27;;;;;;;1.88;0.85;;;14.10;99.90;;;;;;5022519;28;20080;-64
2022/09/28 12:26:58;;;;;;;1.27;0.20;;;14.00;99.90;;;;;;5001190;28;20045;-56
2022/09/28 12:29:36;;;;;;;0.63;0.30;;;14.20;99.90;;;;;;5001063;28;20045;-65
2022/09/28 12:32:26;;;;;;;1.75;0.65;;;14.20;99.90;;;;;;5022470;28;20045;-64
2022/09/28 12:34:52;;;;;;;0.35;0.35;;;14.10;99.90;;;;;;5021280;28;20045;-64
2022/09/28 12:37:36;;;;;;;0.40;0.40;;;14.20;99.90;;;;;;5004933;28;20396;-60
2022/09/28 12:40:16;;;;;;;0.68;0.50;;;14.20;99.90;;;;;;5020461;28;20041;-62
2022/09/28 12:43:02;;;;;;;0.22;0.20;;;14.30;99.90;;;;;;5004029;28;20052;-58
2022/09/28 12:45:30;;;;;;;0.10;0.10;;;14.30;99.90;;;;;;5002427;28;20045;-66
2022/09/28 12:48:02;;;;;;;1.30;0.43;;;14.30;99.00;;;;;;5002995;28;20049;-59
2022/09/28 12:50:53;;;;;;;0.30;0.30;;;14.40;99.90;;;;;;5022269;28;20448;-63
2022/09/28 12:53:28;;;;;;;0.43;0.32;;;14.50;99.90;;;;;;5019393;28;20484;-62
2022/09/28 12:56:09;;;;;;;0.57;0.38;;;14.40;95.50;;;;;;5003468;28;20053;-67
2022/09/28 12:58:44;;;;;;;1.15;0.40;;;14.30;84.10;;;;;;5027127;28;20069;-63
2022/09/28 13:01:28;;;;;;;0.30;0.30;;;14.20;94.90;;;;;;5006600;28;20053;-60
2022/09/28 13:04:03;;;;;;;0.63;0.38;;;14.20;91.80;;;;;;5027822;28;20037;-59
2022/09/28 13:06:44;;;;;;;0.47;0.30;;;14.20;97.20;;;;;;5007394;28;20132;-63
2022/09/28 13:09:22;;;;;;;0.30;0.30;;;14.20;99.90;;;;;;5027481;28;20045;-57
2022/09/28 13:11:53;;;;;;;2.55;0.40;;;14.30;99.10;;;;;;5005856;28;20115;-61
2022/09/28 13:14:54;;;;;;;0.28;0.28;;;14.30;99.90;;;;;;5029692;28;20120;-62
2022/09/28 13:17:47;;;;;;;3.75;0.32;;;14.20;99.90;;;;;;5026247;28;20077;-63
2022/09/28 13:20:26;;;;;;;0.95;0.43;;;14.00;99.90;;;;;;5029181;28;20132;-66
2022/09/28 13:22:58;;;;;;;2.45;0.60;;;13.80;99.90;;;;;;5008187;28;20161;-65
2022/09/28 13:25:29;;;;;;;0.98;0.30;;;13.70;99.90;;;;;;5027595;28;20115;-57
2022/09/28 13:28:04;;;;;;;0.60;0.40;;;13.60;99.90;;;;;;5026308;28;20385;-65
2022/09/28 13:30:33;;;;;;;2.33;0.22;;;13.50;99.90;;;;;;5012473;28;20056;-61